createdAt,value
2024-05-09T00:00:43.770Z,70.72
2024-05-09T00:05:45.511Z,71.46
2024-05-09T00:10:47.037Z,70.72
2024-05-09T00:15:48.453Z,70.65
2024-05-09T00:20:49.879Z,70.64
2024-05-09T00:25:51.271Z,71.02
2024-05-09T00:30:52.649Z,70.63
2024-05-09T00:35:53.953Z,71.50
2024-05-09T00:40:55.276Z,72.04
2024-05-09T00:45:57.392Z,71.76
2024-05-09T00:50:58.862Z,72.36
2024-05-09T00:56:00.297Z,72.32
2024-05-09T01:01:01.770Z,72.71
2024-05-09T01:06:03.310Z,73.38
2024-05-09T01:11:04.779Z,73.03
2024-05-09T01:16:06.194Z,74.17
2024-05-09T01:21:09.469Z,76.39
2024-05-09T01:26:10.918Z,75.45
2024-05-09T01:31:15.835Z,75.19
2024-05-09T01:36:17.252Z,75.18
2024-05-09T01:41:18.631Z,74.66
2024-05-09T01:46:20.002Z,74.44
2024-05-09T01:51:21.357Z,74.41
2024-05-09T01:56:22.692Z,73.45
2024-05-09T02:01:24.178Z,73.29
2024-05-09T02:06:25.545Z,73.13
2024-05-09T02:11:27.061Z,72.50
2024-05-09T02:16:28.493Z,71.90
2024-05-09T02:21:34.086Z,71.62
2024-05-09T02:26:35.496Z,71.44
2024-05-09T02:31:36.850Z,71.60
2024-05-09T02:36:38.210Z,71.47
2024-05-09T02:41:39.604Z,71.56
2024-05-09T02:46:40.972Z,71.33
2024-05-09T02:51:42.306Z,71.32
2024-05-09T02:56:43.635Z,70.43
2024-05-09T03:01:46.070Z,70.74
2024-05-09T03:06:47.522Z,70.94
2024-05-09T03:11:48.990Z,71.44
2024-05-09T03:16:50.465Z,71.15
2024-05-09T03:21:51.919Z,70.87
2024-05-09T03:26:53.227Z,71.32
2024-05-09T03:31:54.732Z,71.33
2024-05-09T03:36:56.094Z,71.87
2024-05-09T03:41:57.484Z,71.49
2024-05-09T03:46:59.020Z,70.95
2024-05-09T03:52:05.049Z,70.88
2024-05-09T03:57:06.456Z,71.30
2024-05-09T04:02:07.917Z,70.73
2024-05-09T04:07:09.260Z,70.81
2024-05-09T04:12:10.772Z,70.98
2024-05-09T04:17:12.291Z,71.61
2024-05-09T04:22:13.728Z,72.12
2024-05-09T04:27:15.045Z,72.56
2024-05-09T04:32:16.534Z,72.57
2024-05-09T04:37:17.956Z,72.52
2024-05-09T04:42:19.265Z,73.01
2024-05-09T04:47:20.722Z,72.18
2024-05-09T04:52:22.110Z,72.36
2024-05-09T04:57:23.482Z,72.76
2024-05-09T05:02:24.897Z,72.30
2024-05-09T05:07:26.293Z,72.88
2024-05-09T05:12:46.531Z,72.57
2024-05-09T05:17:48.038Z,72.78
2024-05-09T05:22:49.486Z,74.73
2024-05-09T05:27:50.810Z,73.81
2024-05-09T05:32:52.246Z,72.34
2024-05-09T05:37:53.750Z,73.31
2024-05-09T05:42:55.105Z,72.64
2024-05-09T05:47:56.661Z,76.60
2024-05-09T05:52:58.203Z,74.95
2024-05-09T05:58:00.593Z,69.18
2024-05-09T06:03:02.093Z,68.22
2024-05-09T06:08:03.668Z,68.37
2024-05-09T06:13:05.049Z,67.20
2024-05-09T06:18:06.494Z,68.20
2024-05-09T06:23:08.116Z,67.45
2024-05-09T06:28:09.654Z,65.76
2024-05-09T06:33:12.987Z,65.16
2024-05-09T06:38:16.388Z,65.76
2024-05-09T06:43:19.398Z,64.22
2024-05-09T06:48:22.318Z,64.82
2024-05-09T06:53:24.355Z,63.46
2024-05-09T06:58:25.786Z,60.40
2024-05-09T07:03:27.271Z,60.74
2024-05-09T07:08:28.739Z,60.11
2024-05-09T07:13:30.169Z,57.55
2024-05-09T07:18:31.863Z,58.82
2024-05-09T07:23:33.277Z,60.04
2024-05-09T07:28:34.621Z,58.16
2024-05-09T07:33:36.024Z,58.33
2024-05-09T07:38:37.583Z,58.72
2024-05-09T07:43:39.044Z,58.92
2024-05-09T07:53:48.073Z,57.27
2024-05-09T07:58:55.589Z,58.60
2024-05-09T08:03:57.414Z,54.60
2024-05-09T08:09:02.773Z,54.28
2024-05-09T08:14:06.674Z,53.17
2024-05-09T08:19:08.022Z,51.23
2024-05-09T08:24:10.476Z,55.16
2024-05-09T08:29:11.833Z,51.37
2024-05-09T08:34:13.444Z,50.45
2024-05-09T08:39:14.837Z,50.38
2024-05-09T08:44:16.150Z,46.51
2024-05-09T08:49:17.649Z,49.20
2024-05-09T08:54:21.239Z,44.75
2024-05-09T08:59:22.572Z,45.82
2024-05-09T09:04:24.131Z,44.58
2024-05-09T09:09:25.551Z,46.23
2024-05-09T09:14:26.881Z,44.38
2024-05-09T09:19:28.337Z,44.79
2024-05-09T09:24:29.776Z,44.86
2024-05-09T09:29:31.175Z,44.59
2024-05-09T09:34:33.283Z,43.17
2024-05-09T09:39:34.706Z,43.91
2024-05-09T09:44:39.531Z,43.79
2024-05-09T09:49:43.474Z,43.97
2024-05-09T09:54:44.986Z,45.26
2024-05-09T09:59:46.432Z,42.81
2024-05-09T10:04:47.932Z,42.60
2024-05-09T10:09:49.442Z,40.23
2024-05-09T10:14:50.846Z,40.64
2024-05-09T10:19:52.293Z,35.60
2024-05-09T10:24:53.734Z,36.49
2024-05-09T10:29:55.205Z,39.07
2024-05-09T10:34:56.686Z,37.39
2024-05-09T10:39:58.439Z,39.82
2024-05-09T10:44:59.821Z,37.85
2024-05-09T10:50:01.299Z,38.27
2024-05-09T10:55:05.481Z,38.61
2024-05-09T11:00:12.762Z,38.89
2024-05-09T11:05:17.534Z,42.27
2024-05-09T11:10:27.250Z,42.31
2024-05-09T11:15:33.246Z,40.76
2024-05-09T11:20:35.523Z,41.17
2024-05-09T11:25:37.035Z,41.37
2024-05-09T11:30:38.373Z,43.99
2024-05-09T11:35:39.734Z,43.32
2024-05-09T11:40:41.328Z,39.97
2024-05-09T11:45:42.811Z,40.95
2024-05-09T11:50:44.219Z,38.06
2024-05-09T11:55:45.625Z,38.53
2024-05-09T12:00:47.373Z,37.05
2024-05-09T12:05:49.011Z,36.77
2024-05-09T12:10:50.605Z,36.84
2024-05-09T12:15:52.031Z,38.50
2024-05-09T12:20:54.008Z,39.46
2024-05-09T12:25:55.331Z,39.79
2024-05-09T12:30:56.685Z,39.59
2024-05-09T12:35:58.010Z,36.76
2024-05-09T12:40:59.478Z,33.93
2024-05-09T12:46:01.325Z,33.74
2024-05-09T12:51:02.786Z,34.22
2024-05-09T12:56:05.458Z,31.23
2024-05-09T13:01:07.483Z,33.35
2024-05-09T13:06:08.893Z,34.26
2024-05-09T13:11:10.358Z,32.56
2024-05-09T13:16:11.770Z,33.68
2024-05-09T13:21:13.205Z,34.22
2024-05-09T13:26:14.511Z,30.91
2024-05-09T13:31:16.002Z,33.19
2024-05-09T13:36:17.406Z,34.11
2024-05-09T13:41:18.807Z,34.88
2024-05-09T13:46:20.372Z,32.74
2024-05-09T13:51:21.831Z,33.10
2024-05-09T13:56:23.143Z,33.79
2024-05-09T14:01:24.528Z,31.73
2024-05-09T14:06:25.857Z,32.38
2024-05-09T14:11:27.200Z,33.21
2024-05-09T14:16:28.649Z,35.25
2024-05-09T14:21:30.135Z,32.45
2024-05-09T14:26:31.502Z,30.67
2024-05-09T14:31:34.839Z,29.88
2024-05-09T14:36:36.916Z,27.67
2024-05-09T14:41:39.144Z,29.17
2024-05-09T14:46:40.465Z,30.38
2024-05-09T14:51:42.006Z,29.67
2024-05-09T14:56:43.469Z,30.92
2024-05-09T15:01:44.962Z,32.06
2024-05-09T15:06:48.456Z,31.48
2024-05-09T15:11:49.868Z,30.59
2024-05-09T15:16:51.807Z,31.86
2024-05-09T15:21:53.202Z,31.24
2024-05-09T15:26:54.581Z,30.52
2024-05-09T15:31:56.174Z,29.82
2024-05-09T15:37:00.383Z,30.03
2024-05-09T15:42:04.563Z,31.25
2024-05-09T15:47:06.044Z,28.92
2024-05-09T15:52:07.500Z,29.88
2024-05-09T15:57:08.909Z,31.52
2024-05-09T16:02:11.560Z,27.91
2024-05-09T16:07:13.427Z,28.57
2024-05-09T16:12:14.844Z,28.41
2024-05-09T16:17:16.371Z,29.12
2024-05-09T16:22:17.823Z,29.39
2024-05-09T16:27:19.281Z,29.85
2024-05-09T16:32:20.658Z,29.23
2024-05-09T16:37:22.010Z,29.24
2024-05-09T16:42:23.342Z,29.63
2024-05-09T16:47:24.728Z,29.79
2024-05-09T16:52:26.250Z,27.86
2024-05-09T16:57:27.633Z,27.96
2024-05-09T17:02:30.398Z,26.75
2024-05-09T17:07:31.938Z,28.66
2024-05-09T17:12:33.352Z,28.00
2024-05-09T17:17:34.899Z,32.27
2024-05-09T17:22:36.459Z,30.33
2024-05-09T17:27:37.918Z,34.07
2024-05-09T17:32:39.450Z,34.99
2024-05-09T17:37:40.839Z,36.72
2024-05-09T17:42:42.177Z,40.08
2024-05-09T17:47:43.660Z,39.87
2024-05-09T17:52:45.115Z,39.13
2024-05-09T17:57:46.495Z,36.64
2024-05-09T18:02:48.293Z,39.48
2024-05-09T18:07:49.725Z,41.91
2024-05-09T18:12:51.081Z,43.10
2024-05-09T18:17:52.786Z,42.88
2024-05-09T18:22:54.143Z,41.81
2024-05-09T18:27:55.491Z,42.76
2024-05-09T18:32:56.874Z,43.02
2024-05-09T18:37:58.246Z,43.04
2024-05-09T18:42:59.583Z,43.79
2024-05-09T18:48:01.108Z,45.60
2024-05-09T18:53:02.771Z,46.84
2024-05-09T18:58:04.400Z,47.03
2024-05-09T19:03:08.087Z,48.88
2024-05-09T19:08:10.296Z,50.49
2024-05-09T19:13:13.533Z,52.00
2024-05-09T19:18:17.146Z,52.06
2024-05-09T19:23:18.685Z,53.40
2024-05-09T19:28:20.123Z,52.24
2024-05-09T19:33:21.636Z,52.93
2024-05-09T19:38:23.075Z,53.76
2024-05-09T19:43:24.554Z,53.54
2024-05-09T19:48:26.076Z,53.09
2024-05-09T19:53:27.463Z,53.90
2024-05-09T19:58:28.893Z,53.64
2024-05-09T20:03:32.156Z,55.48
2024-05-09T20:08:33.676Z,55.17
2024-05-09T20:13:35.051Z,55.80
2024-05-09T20:18:36.646Z,55.71
2024-05-09T20:23:38.074Z,56.29
2024-05-09T20:28:39.548Z,56.74
2024-05-09T20:33:41.088Z,57.44
2024-05-09T20:38:42.536Z,58.64
2024-05-09T20:43:43.844Z,58.68
2024-05-09T20:48:45.308Z,58.88
2024-05-09T20:53:46.741Z,58.73
2024-05-09T20:58:48.063Z,59.04
2024-05-09T21:03:49.545Z,59.73
2024-05-09T21:08:51.022Z,59.99
2024-05-09T21:13:52.394Z,60.14
2024-05-09T21:18:53.718Z,60.57
2024-05-09T21:23:55.060Z,60.40
2024-05-09T21:28:56.390Z,60.13
2024-05-09T21:33:57.820Z,61.60
2024-05-09T21:38:59.240Z,61.84
2024-05-09T21:44:00.546Z,61.20
2024-05-09T21:49:01.903Z,62.79
2024-05-09T21:54:03.281Z,61.65
2024-05-09T21:59:04.657Z,62.05
2024-05-09T22:04:06.205Z,63.17
2024-05-09T22:09:07.638Z,62.93
2024-05-09T22:14:09.011Z,62.61
2024-05-09T22:19:10.471Z,62.70
2024-05-09T22:24:11.865Z,62.93
2024-05-09T22:29:13.338Z,63.73
2024-05-09T22:34:14.954Z,63.23
2024-05-09T22:39:17.652Z,63.36
2024-05-09T22:44:19.031Z,65.28
2024-05-09T22:49:20.538Z,65.06
2024-05-09T22:54:21.911Z,64.78
2024-05-09T22:59:23.221Z,64.85
2024-05-09T23:04:24.654Z,65.67
2024-05-09T23:09:26.021Z,66.95
2024-05-09T23:14:27.328Z,66.17
2024-05-09T23:19:28.822Z,65.38
2024-05-09T23:24:30.211Z,65.96
2024-05-09T23:29:31.560Z,66.30
2024-05-09T23:34:32.882Z,66.17
2024-05-09T23:39:34.304Z,65.60
2024-05-09T23:44:35.666Z,64.61
2024-05-09T23:49:37.030Z,64.97
2024-05-09T23:54:38.463Z,65.22
2024-05-09T23:59:39.794Z,65.68
